sensor_id;sensor_type;location;lat;lon;timestamp;temperature;humidity
9125;DHT22;4597;48.730;9.114;2023-08-07T00:00:57;12.30;99.90
9125;DHT22;4597;48.730;9.114;2023-08-07T00:03:22;12.30;99.90
9125;DHT22;4597;48.730;9.114;2023-08-07T00:05:48;12.30;99.90
9125;DHT22;4597;48.730;9.114;2023-08-07T00:08:14;12.20;99.90
9125;DHT22;4597;48.730;9.114;2023-08-07T00:10:39;12.20;99.90
9125;DHT22;4597;48.730;9.114;2023-08-07T00:13:05;12.30;99.90
9125;DHT22;4597;48.730;9.114;2023-08-07T00:15:31;12.20;99.90
9125;DHT22;4597;48.730;9.114;2023-08-07T00:17:58;12.20;99.90
9125;DHT22;4597;48.730;9.114;2023-08-07T00:20:24;12.30;99.90
9125;DHT22;4597;48.730;9.114;2023-08-07T00:22:49;12.20;99.90
9125;DHT22;4597;48.730;9.114;2023-08-07T00:25:15;12.20;99.90
9125;DHT22;4597;48.730;9.114;2023-08-07T00:27:40;12.20;99.90
9125;DHT22;4597;48.730;9.114;2023-08-07T00:30:06;12.30;99.90
9125;DHT22;4597;48.730;9.114;2023-08-07T00:32:32;12.30;99.90
9125;DHT22;4597;48.730;9.114;2023-08-07T00:34:58;12.20;99.90
9125;DHT22;4597;48.730;9.114;2023-08-07T00:37:23;12.30;99.90
9125;DHT22;4597;48.730;9.114;2023-08-07T00:39:49;12.30;99.90
9125;DHT22;4597;48.730;9.114;2023-08-07T00:42:14;12.30;99.90
9125;DHT22;4597;48.730;9.114;2023-08-07T00:44:40;12.30;99.90
9125;DHT22;4597;48.730;9.114;2023-08-07T00:47:06;12.40;99.90
9125;DHT22;4597;48.730;9.114;2023-08-07T00:49:32;12.30;99.90
9125;DHT22;4597;48.730;9.114;2023-08-07T00:51:58;12.40;99.90
9125;DHT22;4597;48.730;9.114;2023-08-07T00:54:24;12.30;99.90
9125;DHT22;4597;48.730;9.114;2023-08-07T00:56:50;12.40;99.90
9125;DHT22;4597;48.730;9.114;2023-08-07T00:59:16;12.30;99.90
9125;DHT22;4597;48.730;9.114;2023-08-07T01:01:41;12.30;99.90
9125;DHT22;4597;48.730;9.114;2023-08-07T01:04:07;12.30;99.90
9125;DHT22;4597;48.730;9.114;2023-08-07T01:06:33;12.30;99.90
9125;DHT22;4597;48.730;9.114;2023-08-07T01:08:58;12.40;99.90
9125;DHT22;4597;48.730;9.114;2023-08-07T01:11:48;12.40;99.90
9125;DHT22;4597;48.730;9.114;2023-08-07T01:14:28;12.40;99.90
9125;DHT22;4597;48.730;9.114;2023-08-07T01:17:02;12.40;99.90
9125;DHT22;4597;48.730;9.114;2023-08-07T01:19:31;12.40;99.90
9125;DHT22;4597;48.730;9.114;2023-08-07T01:24:33;12.30;99.90
9125;DHT22;4597;48.730;9.114;2023-08-07T01:29:58;12.30;99.90
9125;DHT22;4597;48.730;9.114;2023-08-07T01:32:51;12.30;99.90
9125;DHT22;4597;48.730;9.114;2023-08-07T01:35:16;12.40;99.90
9125;DHT22;4597;48.730;9.114;2023-08-07T01:37:42;12.40;99.90
9125;DHT22;4597;48.730;9.114;2023-08-07T01:40:10;12.40;99.90
9125;DHT22;4597;48.730;9.114;2023-08-07T01:42:36;12.40;99.90
9125;DHT22;4597;48.730;9.114;2023-08-07T01:45:03;12.40;99.90
9125;DHT22;4597;48.730;9.114;2023-08-07T01:47:29;12.40;99.90
9125;DHT22;4597;48.730;9.114;2023-08-07T01:49:55;12.30;99.90
9125;DHT22;4597;48.730;9.114;2023-08-07T01:52:20;12.30;99.90
9125;DHT22;4597;48.730;9.114;2023-08-07T01:54:46;12.40;99.90
9125;DHT22;4597;48.730;9.114;2023-08-07T01:57:12;12.40;99.90
9125;DHT22;4597;48.730;9.114;2023-08-07T01:59:37;12.40;99.90
9125;DHT22;4597;48.730;9.114;2023-08-07T02:02:03;12.40;99.90
9125;DHT22;4597;48.730;9.114;2023-08-07T02:04:29;12.50;99.90
9125;DHT22;4597;48.730;9.114;2023-08-07T02:06:54;12.50;99.90
9125;DHT22;4597;48.730;9.114;2023-08-07T02:09:20;12.40;99.90
9125;DHT22;4597;48.730;9.114;2023-08-07T02:11:46;12.30;99.90
9125;DHT22;4597;48.730;9.114;2023-08-07T02:14:12;12.30;99.90
9125;DHT22;4597;48.730;9.114;2023-08-07T02:16:37;12.30;99.90
9125;DHT22;4597;48.730;9.114;2023-08-07T02:19:03;12.30;99.90
9125;DHT22;4597;48.730;9.114;2023-08-07T02:21:28;12.30;99.90
9125;DHT22;4597;48.730;9.114;2023-08-07T02:23:54;12.30;99.90
9125;DHT22;4597;48.730;9.114;2023-08-07T02:26:19;12.30;99.90
9125;DHT22;4597;48.730;9.114;2023-08-07T02:28:45;12.20;99.90
9125;DHT22;4597;48.730;9.114;2023-08-07T02:31:10;12.20;99.90
9125;DHT22;4597;48.730;9.114;2023-08-07T02:33:36;12.20;99.90
9125;DHT22;4597;48.730;9.114;2023-08-07T02:36:01;12.20;99.90
9125;DHT22;4597;48.730;9.114;2023-08-07T02:38:27;12.20;99.90
9125;DHT22;4597;48.730;9.114;2023-08-07T02:40:52;12.10;99.90
9125;DHT22;4597;48.730;9.114;2023-08-07T02:43:17;12.10;99.90
9125;DHT22;4597;48.730;9.114;2023-08-07T02:45:43;12.10;99.90
9125;DHT22;4597;48.730;9.114;2023-08-07T02:48:08;12.20;99.90
9125;DHT22;4597;48.730;9.114;2023-08-07T02:50:35;12.20;99.90
9125;DHT22;4597;48.730;9.114;2023-08-07T02:53:01;12.20;99.90
9125;DHT22;4597;48.730;9.114;2023-08-07T02:55:26;12.10;99.90
9125;DHT22;4597;48.730;9.114;2023-08-07T02:57:52;12.10;99.90
9125;DHT22;4597;48.730;9.114;2023-08-07T03:00:18;12.10;99.90
9125;DHT22;4597;48.730;9.114;2023-08-07T03:02:43;12.10;99.90
9125;DHT22;4597;48.730;9.114;2023-08-07T03:05:09;12.10;99.90
9125;DHT22;4597;48.730;9.114;2023-08-07T03:07:35;12.10;99.90
9125;DHT22;4597;48.730;9.114;2023-08-07T03:10:00;12.10;99.90
9125;DHT22;4597;48.730;9.114;2023-08-07T03:12:26;12.10;99.90
9125;DHT22;4597;48.730;9.114;2023-08-07T03:14:52;12.10;99.90
9125;DHT22;4597;48.730;9.114;2023-08-07T03:17:17;12.10;99.90
9125;DHT22;4597;48.730;9.114;2023-08-07T03:19:43;12.10;99.90
9125;DHT22;4597;48.730;9.114;2023-08-07T03:22:09;12.10;99.90
9125;DHT22;4597;48.730;9.114;2023-08-07T03:24:35;12.10;99.90
9125;DHT22;4597;48.730;9.114;2023-08-07T03:27:00;12.20;99.90
9125;DHT22;4597;48.730;9.114;2023-08-07T03:29:26;12.20;99.90
9125;DHT22;4597;48.730;9.114;2023-08-07T03:31:51;12.20;99.90
9125;DHT22;4597;48.730;9.114;2023-08-07T03:34:17;12.20;99.90
9125;DHT22;4597;48.730;9.114;2023-08-07T03:36:43;12.20;99.90
9125;DHT22;4597;48.730;9.114;2023-08-07T03:39:08;12.20;99.90
9125;DHT22;4597;48.730;9.114;2023-08-07T03:41:35;12.20;99.90
9125;DHT22;4597;48.730;9.114;2023-08-07T03:44:01;12.20;99.90
9125;DHT22;4597;48.730;9.114;2023-08-07T03:46:26;12.20;99.90
9125;DHT22;4597;48.730;9.114;2023-08-07T03:48:52;12.20;99.90
9125;DHT22;4597;48.730;9.114;2023-08-07T03:51:17;12.20;99.90
9125;DHT22;4597;48.730;9.114;2023-08-07T03:53:43;12.20;99.90
9125;DHT22;4597;48.730;9.114;2023-08-07T03:56:09;12.20;99.90
9125;DHT22;4597;48.730;9.114;2023-08-07T03:58:35;12.20;99.90
9125;DHT22;4597;48.730;9.114;2023-08-07T04:01:00;12.20;99.90
9125;DHT22;4597;48.730;9.114;2023-08-07T04:03:26;12.20;99.90
9125;DHT22;4597;48.730;9.114;2023-08-07T04:05:52;12.20;99.90
9125;DHT22;4597;48.730;9.114;2023-08-07T04:08:19;12.20;99.90
9125;DHT22;4597;48.730;9.114;2023-08-07T04:10:44;12.20;99.90
9125;DHT22;4597;48.730;9.114;2023-08-07T04:13:10;12.20;99.90
9125;DHT22;4597;48.730;9.114;2023-08-07T04:15:35;12.20;99.90
9125;DHT22;4597;48.730;9.114;2023-08-07T04:18:01;12.20;99.90
9125;DHT22;4597;48.730;9.114;2023-08-07T04:20:26;12.20;99.90
9125;DHT22;4597;48.730;9.114;2023-08-07T04:22:52;12.20;99.90
9125;DHT22;4597;48.730;9.114;2023-08-07T04:25:17;12.20;99.90
9125;DHT22;4597;48.730;9.114;2023-08-07T04:27:43;12.20;99.90
9125;DHT22;4597;48.730;9.114;2023-08-07T04:30:09;12.20;99.90
9125;DHT22;4597;48.730;9.114;2023-08-07T04:32:34;12.20;99.90
9125;DHT22;4597;48.730;9.114;2023-08-07T04:35:00;12.20;99.90
9125;DHT22;4597;48.730;9.114;2023-08-07T04:37:25;12.20;99.90
9125;DHT22;4597;48.730;9.114;2023-08-07T04:39:51;12.20;99.90
9125;DHT22;4597;48.730;9.114;2023-08-07T04:42:17;12.30;99.90
9125;DHT22;4597;48.730;9.114;2023-08-07T04:44:42;12.30;99.90
9125;DHT22;4597;48.730;9.114;2023-08-07T04:47:08;12.30;99.90
9125;DHT22;4597;48.730;9.114;2023-08-07T04:49:33;12.30;99.90
9125;DHT22;4597;48.730;9.114;2023-08-07T04:51:59;12.30;99.90
9125;DHT22;4597;48.730;9.114;2023-08-07T04:54:24;12.30;99.90
9125;DHT22;4597;48.730;9.114;2023-08-07T04:56:50;12.20;99.90
9125;DHT22;4597;48.730;9.114;2023-08-07T04:59:15;12.30;99.90
9125;DHT22;4597;48.730;9.114;2023-08-07T05:01:41;12.30;99.90
9125;DHT22;4597;48.730;9.114;2023-08-07T05:04:07;12.30;99.90
9125;DHT22;4597;48.730;9.114;2023-08-07T05:06:32;12.40;99.90
9125;DHT22;4597;48.730;9.114;2023-08-07T05:08:58;12.40;99.90
9125;DHT22;4597;48.730;9.114;2023-08-07T05:11:23;12.40;99.90
9125;DHT22;4597;48.730;9.114;2023-08-07T05:13:49;12.40;99.90
9125;DHT22;4597;48.730;9.114;2023-08-07T05:16:14;12.40;99.90
9125;DHT22;4597;48.730;9.114;2023-08-07T05:18:40;12.40;99.90
9125;DHT22;4597;48.730;9.114;2023-08-07T05:21:05;12.60;99.90
9125;DHT22;4597;48.730;9.114;2023-08-07T05:23:33;12.50;99.90
9125;DHT22;4597;48.730;9.114;2023-08-07T05:25:59;12.60;99.90
9125;DHT22;4597;48.730;9.114;2023-08-07T05:28:25;12.60;99.90
9125;DHT22;4597;48.730;9.114;2023-08-07T05:30:50;12.60;99.90
9125;DHT22;4597;48.730;9.114;2023-08-07T05:33:15;12.60;99.90
9125;DHT22;4597;48.730;9.114;2023-08-07T05:35:41;12.70;99.90
9125;DHT22;4597;48.730;9.114;2023-08-07T05:38:06;12.70;99.90
9125;DHT22;4597;48.730;9.114;2023-08-07T05:40:32;12.70;99.90
9125;DHT22;4597;48.730;9.114;2023-08-07T05:42:59;12.80;99.90
9125;DHT22;4597;48.730;9.114;2023-08-07T05:45:25;12.80;99.90
9125;DHT22;4597;48.730;9.114;2023-08-07T05:47:50;12.90;99.90
9125;DHT22;4597;48.730;9.114;2023-08-07T05:50:16;12.90;99.90
9125;DHT22;4597;48.730;9.114;2023-08-07T05:52:41;12.90;99.90
9125;DHT22;4597;48.730;9.114;2023-08-07T05:55:07;12.90;99.90
9125;DHT22;4597;48.730;9.114;2023-08-07T05:57:33;13.00;99.90
9125;DHT22;4597;48.730;9.114;2023-08-07T05:59:59;13.00;99.90
9125;DHT22;4597;48.730;9.114;2023-08-07T06:02:24;13.00;99.90
9125;DHT22;4597;48.730;9.114;2023-08-07T06:04:50;13.10;99.90
9125;DHT22;4597;48.730;9.114;2023-08-07T06:07:15;13.10;99.90
9125;DHT22;4597;48.730;9.114;2023-08-07T06:09:41;13.10;99.90
9125;DHT22;4597;48.730;9.114;2023-08-07T06:12:07;13.10;99.90
9125;DHT22;4597;48.730;9.114;2023-08-07T06:14:32;13.10;99.90
9125;DHT22;4597;48.730;9.114;2023-08-07T06:16:58;13.10;99.90
9125;DHT22;4597;48.730;9.114;2023-08-07T06:19:25;13.10;99.90
9125;DHT22;4597;48.730;9.114;2023-08-07T06:21:52;13.00;99.90
9125;DHT22;4597;48.730;9.114;2023-08-07T06:24:18;13.00;99.90
9125;DHT22;4597;48.730;9.114;2023-08-07T06:26:43;13.10;99.90
9125;DHT22;4597;48.730;9.114;2023-08-07T06:29:09;13.10;99.90
9125;DHT22;4597;48.730;9.114;2023-08-07T06:31:34;13.10;99.90
9125;DHT22;4597;48.730;9.114;2023-08-07T06:34:00;13.20;99.90
9125;DHT22;4597;48.730;9.114;2023-08-07T06:36:25;13.20;99.90
9125;DHT22;4597;48.730;9.114;2023-08-07T06:38:51;13.30;99.90
9125;DHT22;4597;48.730;9.114;2023-08-07T06:41:17;13.40;99.90
9125;DHT22;4597;48.730;9.114;2023-08-07T06:43:43;13.50;99.90
9125;DHT22;4597;48.730;9.114;2023-08-07T06:46:08;13.50;99.90
9125;DHT22;4597;48.730;9.114;2023-08-07T06:48:34;13.50;99.90
9125;DHT22;4597;48.730;9.114;2023-08-07T06:50:59;13.60;99.90
9125;DHT22;4597;48.730;9.114;2023-08-07T06:53:25;13.60;99.90
9125;DHT22;4597;48.730;9.114;2023-08-07T06:55:50;13.70;99.90
9125;DHT22;4597;48.730;9.114;2023-08-07T06:58:16;13.80;99.90
9125;DHT22;4597;48.730;9.114;2023-08-07T07:00:42;13.80;99.90
9125;DHT22;4597;48.730;9.114;2023-08-07T07:03:07;13.90;99.90
9125;DHT22;4597;48.730;9.114;2023-08-07T07:05:35;13.90;99.90
9125;DHT22;4597;48.730;9.114;2023-08-07T07:08:00;13.90;99.90
9125;DHT22;4597;48.730;9.114;2023-08-07T07:10:26;14.00;99.90
9125;DHT22;4597;48.730;9.114;2023-08-07T07:12:51;14.00;99.90
9125;DHT22;4597;48.730;9.114;2023-08-07T07:15:18;14.10;99.90
9125;DHT22;4597;48.730;9.114;2023-08-07T07:17:43;14.00;99.90
9125;DHT22;4597;48.730;9.114;2023-08-07T07:20:09;14.00;99.90
9125;DHT22;4597;48.730;9.114;2023-08-07T07:22:35;14.00;99.90
9125;DHT22;4597;48.730;9.114;2023-08-07T07:25:01;14.00;99.90
9125;DHT22;4597;48.730;9.114;2023-08-07T07:27:26;13.90;99.90
9125;DHT22;4597;48.730;9.114;2023-08-07T07:29:52;13.80;99.90
9125;DHT22;4597;48.730;9.114;2023-08-07T07:32:18;13.90;99.90
9125;DHT22;4597;48.730;9.114;2023-08-07T07:34:44;13.90;99.90
9125;DHT22;4597;48.730;9.114;2023-08-07T07:37:10;14.00;99.90
9125;DHT22;4597;48.730;9.114;2023-08-07T07:39:35;14.00;99.90
9125;DHT22;4597;48.730;9.114;2023-08-07T07:42:01;13.90;99.90
9125;DHT22;4597;48.730;9.114;2023-08-07T07:44:28;13.90;99.90
9125;DHT22;4597;48.730;9.114;2023-08-07T07:46:54;13.90;99.90
9125;DHT22;4597;48.730;9.114;2023-08-07T07:49:19;13.90;99.90
9125;DHT22;4597;48.730;9.114;2023-08-07T07:51:45;13.90;99.90
9125;DHT22;4597;48.730;9.114;2023-08-07T07:54:11;13.90;99.90
9125;DHT22;4597;48.730;9.114;2023-08-07T07:56:37;13.90;99.90
9125;DHT22;4597;48.730;9.114;2023-08-07T07:59:02;13.90;99.90
9125;DHT22;4597;48.730;9.114;2023-08-07T08:01:28;14.00;99.90
9125;DHT22;4597;48.730;9.114;2023-08-07T08:03:53;14.10;99.90
9125;DHT22;4597;48.730;9.114;2023-08-07T08:06:19;14.10;99.90
9125;DHT22;4597;48.730;9.114;2023-08-07T08:08:44;14.00;99.90
9125;DHT22;4597;48.730;9.114;2023-08-07T08:11:10;14.10;99.90
9125;DHT22;4597;48.730;9.114;2023-08-07T08:13:36;14.10;99.90
9125;DHT22;4597;48.730;9.114;2023-08-07T08:16:04;14.10;99.90
9125;DHT22;4597;48.730;9.114;2023-08-07T08:18:30;14.20;99.90
9125;DHT22;4597;48.730;9.114;2023-08-07T08:20:56;14.30;99.90
9125;DHT22;4597;48.730;9.114;2023-08-07T08:23:21;14.40;99.90
9125;DHT22;4597;48.730;9.114;2023-08-07T08:25:48;14.50;99.90
9125;DHT22;4597;48.730;9.114;2023-08-07T08:28:14;14.70;99.90
9125;DHT22;4597;48.730;9.114;2023-08-07T08:30:39;14.70;99.90
9125;DHT22;4597;48.730;9.114;2023-08-07T08:33:05;14.70;99.90
9125;DHT22;4597;48.730;9.114;2023-08-07T08:35:31;14.90;99.90
9125;DHT22;4597;48.730;9.114;2023-08-07T08:37:57;14.90;99.90
9125;DHT22;4597;48.730;9.114;2023-08-07T08:40:23;14.80;99.90
9125;DHT22;4597;48.730;9.114;2023-08-07T08:42:49;14.90;99.90
9125;DHT22;4597;48.730;9.114;2023-08-07T08:45:15;15.00;99.90
9125;DHT22;4597;48.730;9.114;2023-08-07T08:47:42;14.90;99.90
9125;DHT22;4597;48.730;9.114;2023-08-07T08:50:13;14.80;99.90
9125;DHT22;4597;48.730;9.114;2023-08-07T08:52:42;14.80;99.90
9125;DHT22;4597;48.730;9.114;2023-08-07T08:55:09;14.70;99.90
9125;DHT22;4597;48.730;9.114;2023-08-07T08:57:35;14.70;99.90
9125;DHT22;4597;48.730;9.114;2023-08-07T09:00:02;14.80;99.90
9125;DHT22;4597;48.730;9.114;2023-08-07T09:02:32;14.80;99.90
9125;DHT22;4597;48.730;9.114;2023-08-07T09:04:58;15.00;99.90
9125;DHT22;4597;48.730;9.114;2023-08-07T09:07:24;14.90;99.90
9125;DHT22;4597;48.730;9.114;2023-08-07T09:09:50;15.00;99.90
9125;DHT22;4597;48.730;9.114;2023-08-07T09:12:26;14.90;99.90
9125;DHT22;4597;48.730;9.114;2023-08-07T09:14:57;15.00;99.90
9125;DHT22;4597;48.730;9.114;2023-08-07T09:17:29;15.10;99.90
9125;DHT22;4597;48.730;9.114;2023-08-07T09:19:57;15.10;99.90
9125;DHT22;4597;48.730;9.114;2023-08-07T09:22:23;15.10;99.90
9125;DHT22;4597;48.730;9.114;2023-08-07T09:24:48;15.10;99.90
9125;DHT22;4597;48.730;9.114;2023-08-07T09:27:14;15.10;99.90
9125;DHT22;4597;48.730;9.114;2023-08-07T09:29:40;15.30;99.90
9125;DHT22;4597;48.730;9.114;2023-08-07T09:32:07;15.40;99.90
9125;DHT22;4597;48.730;9.114;2023-08-07T09:34:33;15.40;99.90
9125;DHT22;4597;48.730;9.114;2023-08-07T09:36:59;15.40;99.90
9125;DHT22;4597;48.730;9.114;2023-08-07T09:39:24;15.50;99.90
9125;DHT22;4597;48.730;9.114;2023-08-07T09:41:53;15.50;99.90
9125;DHT22;4597;48.730;9.114;2023-08-07T09:44:18;15.40;99.90
9125;DHT22;4597;48.730;9.114;2023-08-07T09:46:44;15.30;99.90
9125;DHT22;4597;48.730;9.114;2023-08-07T09:49:10;15.40;99.90
9125;DHT22;4597;48.730;9.114;2023-08-07T09:51:44;15.40;99.90
9125;DHT22;4597;48.730;9.114;2023-08-07T09:54:10;15.60;99.90
9125;DHT22;4597;48.730;9.114;2023-08-07T09:56:36;15.70;99.90
9125;DHT22;4597;48.730;9.114;2023-08-07T09:59:01;15.70;99.90
9125;DHT22;4597;48.730;9.114;2023-08-07T10:01:27;15.80;99.90
9125;DHT22;4597;48.730;9.114;2023-08-07T10:03:53;15.90;99.90
9125;DHT22;4597;48.730;9.114;2023-08-07T10:06:19;15.90;99.90
9125;DHT22;4597;48.730;9.114;2023-08-07T10:08:45;15.80;99.90
9125;DHT22;4597;48.730;9.114;2023-08-07T10:11:11;15.90;99.90
9125;DHT22;4597;48.730;9.114;2023-08-07T10:13:40;15.90;99.90
9125;DHT22;4597;48.730;9.114;2023-08-07T10:16:07;15.90;99.90
9125;DHT22;4597;48.730;9.114;2023-08-07T10:18:36;15.90;99.90
9125;DHT22;4597;48.730;9.114;2023-08-07T10:21:03;15.90;99.90
9125;DHT22;4597;48.730;9.114;2023-08-07T10:23:32;15.90;99.90
9125;DHT22;4597;48.730;9.114;2023-08-07T10:25:59;16.10;99.90
9125;DHT22;4597;48.730;9.114;2023-08-07T10:28:26;16.10;99.90
9125;DHT22;4597;48.730;9.114;2023-08-07T10:30:52;16.20;99.90
9125;DHT22;4597;48.730;9.114;2023-08-07T10:33:18;16.30;99.90
9125;DHT22;4597;48.730;9.114;2023-08-07T10:35:46;16.40;99.90
9125;DHT22;4597;48.730;9.114;2023-08-07T10:38:13;16.60;99.90
9125;DHT22;4597;48.730;9.114;2023-08-07T10:43:26;17.00;99.20
9125;DHT22;4597;48.730;9.114;2023-08-07T10:45:53;17.00;98.60
9125;DHT22;4597;48.730;9.114;2023-08-07T10:48:20;17.00;98.40
9125;DHT22;4597;48.730;9.114;2023-08-07T10:53:41;17.00;99.60
9125;DHT22;4597;48.730;9.114;2023-08-07T10:56:09;17.00;99.70
9125;DHT22;4597;48.730;9.114;2023-08-07T10:58:40;16.90;98.40
9125;DHT22;4597;48.730;9.114;2023-08-07T11:03:56;16.70;98.70
9125;DHT22;4597;48.730;9.114;2023-08-07T11:06:30;16.70;98.50
9125;DHT22;4597;48.730;9.114;2023-08-07T11:08:59;16.70;99.40
9125;DHT22;4597;48.730;9.114;2023-08-07T11:11:27;16.80;96.30
9125;DHT22;4597;48.730;9.114;2023-08-07T11:13:52;16.80;96.40
9125;DHT22;4597;48.730;9.114;2023-08-07T11:16:18;16.80;97.40
9125;DHT22;4597;48.730;9.114;2023-08-07T11:18:47;16.90;97.10
9125;DHT22;4597;48.730;9.114;2023-08-07T11:21:13;16.90;97.50
9125;DHT22;4597;48.730;9.114;2023-08-07T11:23:39;16.90;96.70
9125;DHT22;4597;48.730;9.114;2023-08-07T11:26:05;16.90;98.40
9125;DHT22;4597;48.730;9.114;2023-08-07T11:28:30;16.80;96.80
9125;DHT22;4597;48.730;9.114;2023-08-07T11:30:56;16.80;97.50
9125;DHT22;4597;48.730;9.114;2023-08-07T11:33:23;16.80;98.20
9125;DHT22;4597;48.730;9.114;2023-08-07T11:35:49;16.80;99.90
9125;DHT22;4597;48.730;9.114;2023-08-07T11:38:36;16.90;99.90
9125;DHT22;4597;48.730;9.114;2023-08-07T11:41:03;17.00;99.90
9125;DHT22;4597;48.730;9.114;2023-08-07T11:43:30;16.90;99.50
9125;DHT22;4597;48.730;9.114;2023-08-07T11:45:57;16.70;99.90
9125;DHT22;4597;48.730;9.114;2023-08-07T11:48:31;16.80;99.90
9125;DHT22;4597;48.730;9.114;2023-08-07T11:50:58;16.80;99.90
9125;DHT22;4597;48.730;9.114;2023-08-07T11:53:25;16.80;99.90
9125;DHT22;4597;48.730;9.114;2023-08-07T11:56:02;17.00;99.90
9125;DHT22;4597;48.730;9.114;2023-08-07T11:58:48;17.00;99.90
9125;DHT22;4597;48.730;9.114;2023-08-07T12:01:26;17.10;99.90
9125;DHT22;4597;48.730;9.114;2023-08-07T12:04:09;17.10;99.90
9125;DHT22;4597;48.730;9.114;2023-08-07T12:06:35;17.00;99.90
9125;DHT22;4597;48.730;9.114;2023-08-07T12:09:02;17.20;99.90
9125;DHT22;4597;48.730;9.114;2023-08-07T12:11:30;17.20;99.90
9125;DHT22;4597;48.730;9.114;2023-08-07T12:13:59;17.20;99.90
9125;DHT22;4597;48.730;9.114;2023-08-07T12:16:25;17.10;99.90
9125;DHT22;4597;48.730;9.114;2023-08-07T12:18:51;17.10;99.90
9125;DHT22;4597;48.730;9.114;2023-08-07T12:21:18;17.00;99.90
9125;DHT22;4597;48.730;9.114;2023-08-07T12:23:45;17.00;99.90
9125;DHT22;4597;48.730;9.114;2023-08-07T12:26:13;17.00;99.90
9125;DHT22;4597;48.730;9.114;2023-08-07T12:28:39;17.10;99.90
9125;DHT22;4597;48.730;9.114;2023-08-07T12:31:04;17.30;99.90
9125;DHT22;4597;48.730;9.114;2023-08-07T12:33:30;17.50;99.90
9125;DHT22;4597;48.730;9.114;2023-08-07T12:35:57;17.60;99.90
9125;DHT22;4597;48.730;9.114;2023-08-07T12:38:23;17.50;99.90
9125;DHT22;4597;48.730;9.114;2023-08-07T12:40:49;17.40;99.90
9125;DHT22;4597;48.730;9.114;2023-08-07T12:43:14;17.40;99.90
9125;DHT22;4597;48.730;9.114;2023-08-07T12:45:40;17.30;99.90
9125;DHT22;4597;48.730;9.114;2023-08-07T12:48:05;17.20;99.90
9125;DHT22;4597;48.730;9.114;2023-08-07T12:50:32;17.10;99.90
9125;DHT22;4597;48.730;9.114;2023-08-07T12:52:58;17.10;99.90
9125;DHT22;4597;48.730;9.114;2023-08-07T12:55:24;17.10;99.90
9125;DHT22;4597;48.730;9.114;2023-08-07T12:57:50;17.10;99.90
9125;DHT22;4597;48.730;9.114;2023-08-07T13:00:16;17.00;99.90
9125;DHT22;4597;48.730;9.114;2023-08-07T13:02:45;17.00;99.90
9125;DHT22;4597;48.730;9.114;2023-08-07T13:05:11;17.00;99.90
9125;DHT22;4597;48.730;9.114;2023-08-07T13:07:38;17.10;99.90
9125;DHT22;4597;48.730;9.114;2023-08-07T13:10:08;17.10;99.90
9125;DHT22;4597;48.730;9.114;2023-08-07T13:12:39;17.10;99.90
9125;DHT22;4597;48.730;9.114;2023-08-07T13:15:06;17.20;99.90
9125;DHT22;4597;48.730;9.114;2023-08-07T13:17:33;17.50;99.90
9125;DHT22;4597;48.730;9.114;2023-08-07T13:20:00;17.70;99.90
9125;DHT22;4597;48.730;9.114;2023-08-07T13:22:26;18.10;99.90
9125;DHT22;4597;48.730;9.114;2023-08-07T13:24:52;18.30;99.90
9125;DHT22;4597;48.730;9.114;2023-08-07T13:27:18;18.40;99.90
9125;DHT22;4597;48.730;9.114;2023-08-07T13:29:44;18.20;99.90
9125;DHT22;4597;48.730;9.114;2023-08-07T13:32:09;18.10;99.90
9125;DHT22;4597;48.730;9.114;2023-08-07T13:34:36;18.10;99.90
9125;DHT22;4597;48.730;9.114;2023-08-07T13:37:02;18.20;99.90
9125;DHT22;4597;48.730;9.114;2023-08-07T13:39:28;18.60;99.90
9125;DHT22;4597;48.730;9.114;2023-08-07T13:41:54;18.80;99.90
9125;DHT22;4597;48.730;9.114;2023-08-07T13:44:19;18.70;99.90
9125;DHT22;4597;48.730;9.114;2023-08-07T13:46:45;18.60;99.90
9125;DHT22;4597;48.730;9.114;2023-08-07T13:49:13;18.60;99.90
9125;DHT22;4597;48.730;9.114;2023-08-07T13:51:38;18.50;99.90
9125;DHT22;4597;48.730;9.114;2023-08-07T13:54:04;18.50;99.90
9125;DHT22;4597;48.730;9.114;2023-08-07T13:56:29;19.10;99.90
9125;DHT22;4597;48.730;9.114;2023-08-07T13:58:55;19.70;99.90
9125;DHT22;4597;48.730;9.114;2023-08-07T14:01:20;19.90;94.20
9125;DHT22;4597;48.730;9.114;2023-08-07T14:03:46;19.50;90.10
9125;DHT22;4597;48.730;9.114;2023-08-07T14:06:11;19.10;90.50
9125;DHT22;4597;48.730;9.114;2023-08-07T14:08:37;18.80;90.60
9125;DHT22;4597;48.730;9.114;2023-08-07T14:11:02;18.60;89.30
9125;DHT22;4597;48.730;9.114;2023-08-07T14:13:28;18.50;91.00
9125;DHT22;4597;48.730;9.114;2023-08-07T14:15:54;18.40;90.00
9125;DHT22;4597;48.730;9.114;2023-08-07T14:18:19;18.40;90.40
9125;DHT22;4597;48.730;9.114;2023-08-07T14:20:45;18.50;91.30
9125;DHT22;4597;48.730;9.114;2023-08-07T14:23:10;18.70;92.10
9125;DHT22;4597;48.730;9.114;2023-08-07T14:25:36;19.00;93.10
9125;DHT22;4597;48.730;9.114;2023-08-07T14:28:01;20.00;91.00
9125;DHT22;4597;48.730;9.114;2023-08-07T14:30:27;20.80;88.00
9125;DHT22;4597;48.730;9.114;2023-08-07T14:32:52;21.70;80.50
9125;DHT22;4597;48.730;9.114;2023-08-07T14:35:18;21.70;73.40
9125;DHT22;4597;48.730;9.114;2023-08-07T14:37:44;21.00;72.60
9125;DHT22;4597;48.730;9.114;2023-08-07T14:40:10;20.20;73.60
9125;DHT22;4597;48.730;9.114;2023-08-07T14:42:35;19.50;75.70
9125;DHT22;4597;48.730;9.114;2023-08-07T14:45:01;19.00;81.40
9125;DHT22;4597;48.730;9.114;2023-08-07T14:47:26;18.80;90.10
9125;DHT22;4597;48.730;9.114;2023-08-07T14:49:52;18.50;93.80
9125;DHT22;4597;48.730;9.114;2023-08-07T14:52:18;18.30;97.80
9125;DHT22;4597;48.730;9.114;2023-08-07T14:54:43;18.20;99.90
9125;DHT22;4597;48.730;9.114;2023-08-07T14:57:09;18.10;99.90
9125;DHT22;4597;48.730;9.114;2023-08-07T14:59:35;18.80;99.90
9125;DHT22;4597;48.730;9.114;2023-08-07T15:02:00;21.40;88.80
9125;DHT22;4597;48.730;9.114;2023-08-07T15:04:26;24.10;65.60
9125;DHT22;4597;48.730;9.114;2023-08-07T15:06:52;26.10;51.30
9125;DHT22;4597;48.730;9.114;2023-08-07T15:09:18;26.70;42.50
9125;DHT22;4597;48.730;9.114;2023-08-07T15:11:45;26.00;44.10
9125;DHT22;4597;48.730;9.114;2023-08-07T15:14:12;26.10;43.90
9125;DHT22;4597;48.730;9.114;2023-08-07T15:16:38;26.10;44.90
9125;DHT22;4597;48.730;9.114;2023-08-07T15:19:04;25.40;43.20
9125;DHT22;4597;48.730;9.114;2023-08-07T15:21:30;24.00;44.30
9125;DHT22;4597;48.730;9.114;2023-08-07T15:23:55;22.40;50.50
9125;DHT22;4597;48.730;9.114;2023-08-07T15:26:21;21.60;52.30
9125;DHT22;4597;48.730;9.114;2023-08-07T15:28:47;20.70;55.00
9125;DHT22;4597;48.730;9.114;2023-08-07T15:31:12;20.00;58.80
9125;DHT22;4597;48.730;9.114;2023-08-07T15:33:38;19.90;63.40
9125;DHT22;4597;48.730;9.114;2023-08-07T15:36:03;19.80;65.10
9125;DHT22;4597;48.730;9.114;2023-08-07T15:38:29;19.70;66.40
9125;DHT22;4597;48.730;9.114;2023-08-07T15:40:55;19.60;67.50
9125;DHT22;4597;48.730;9.114;2023-08-07T15:43:21;19.50;70.10
9125;DHT22;4597;48.730;9.114;2023-08-07T15:45:50;19.50;69.50
9125;DHT22;4597;48.730;9.114;2023-08-07T15:48:16;20.00;68.90
9125;DHT22;4597;48.730;9.114;2023-08-07T15:50:41;21.10;66.10
9125;DHT22;4597;48.730;9.114;2023-08-07T15:53:07;22.00;59.20
9125;DHT22;4597;48.730;9.114;2023-08-07T15:55:32;23.00;57.30
9125;DHT22;4597;48.730;9.114;2023-08-07T15:58:01;23.50;52.60
9125;DHT22;4597;48.730;9.114;2023-08-07T16:00:27;23.30;51.20
9125;DHT22;4597;48.730;9.114;2023-08-07T16:02:54;22.40;51.70
9125;DHT22;4597;48.730;9.114;2023-08-07T16:05:20;21.60;54.70
9125;DHT22;4597;48.730;9.114;2023-08-07T16:07:46;21.90;54.50
9125;DHT22;4597;48.730;9.114;2023-08-07T16:10:15;22.40;53.60